Terminal Aerodrome Forecast
Issued by NWS

Home | Current Version | Previous Version | Text Only | Print | Product List | Glossary On
Versions: 1 2 3 4 5 6 7 8 9 10 11 12
560
FTPA31 PHFO 090520
TAFHMK
TAF
PHMK 090520Z 0906/1006 VRB04KT P6SM -RA SCT015 BKN035 BKN050
      TEMPO 0906/0910 5SM SHRA BR SCT005 BKN014 OVC025
     FM091900 16009KT P6SM VCSH SCT020 BKN040
     FM100500 VRB05KT P6SM VCSH SCT025 BKN045=

USA.gov is the U.S. government's official web portal to all federal, state and local government web resources and services.